createdAt,value
2019-01-31T00:04:12.810Z,5.07
2019-01-31T00:09:18.198Z,3.60
2019-01-31T00:14:26.011Z,6.72
2019-01-31T00:19:39.796Z,2.33
2019-01-31T00:24:50.953Z,2.53
2019-01-31T00:30:02.251Z,4.77
2019-01-31T00:35:27.010Z,3.70
2019-01-31T00:40:50.760Z,5.60
2019-01-31T00:46:52.130Z,1.87
2019-01-31T00:52:21.266Z,3.17
2019-01-31T00:57:39.124Z,1.50
2019-01-31T01:03:02.158Z,1.30
2019-01-31T01:08:34.514Z,3.57
2019-01-31T01:14:02.758Z,2.10
2019-01-31T01:19:24.460Z,2.00
2019-01-31T01:24:52.094Z,2.37
2019-01-31T01:30:14.257Z,1.60
2019-01-31T01:35:46.832Z,2.67
2019-01-31T01:41:10.289Z,1.70
2019-01-31T01:46:32.562Z,2.10
2019-01-31T01:51:56.055Z,3.50
2019-01-31T01:57:06.973Z,3.03
2019-01-31T02:02:35.938Z,2.27
2019-01-31T02:07:41.359Z,1.60
2019-01-31T02:13:01.187Z,2.27
2019-01-31T02:18:06.274Z,2.60
2019-01-31T02:23:14.175Z,2.90
2019-01-31T02:28:22.067Z,2.20
2019-01-31T02:33:30.180Z,1.93
2019-01-31T02:38:53.910Z,2.60
2019-01-31T02:44:05.090Z,2.33
2019-01-31T02:49:31.553Z,1.80
2019-01-31T02:54:49.050Z,2.40
2019-01-31T03:00:04.408Z,2.73
2019-01-31T03:05:22.586Z,2.20
2019-01-31T03:10:33.622Z,2.07
2019-01-31T03:15:57.467Z,1.90
2019-01-31T03:21:11.913Z,1.87
2019-01-31T03:26:20.347Z,2.00
2019-01-31T03:31:37.198Z,2.00
2019-01-31T03:36:42.351Z,1.87
2019-01-31T03:41:53.621Z,2.20
2019-01-31T03:47:04.434Z,1.90
2019-01-31T03:52:27.186Z,1.90
2019-01-31T03:57:38.330Z,1.37
2019-01-31T04:03:04.141Z,1.70
2019-01-31T04:08:05.524Z,1.50
2019-01-31T04:13:06.842Z,1.40
2019-01-31T04:18:08.270Z,1.93
2019-01-31T04:23:09.558Z,1.90
2019-01-31T04:28:11.020Z,1.60
2019-01-31T04:33:12.314Z,1.60
2019-01-31T04:38:13.919Z,1.87
2019-01-31T04:43:15.206Z,1.33
2019-01-31T04:48:16.524Z,1.63
2019-01-31T04:53:18.131Z,1.60
2019-01-31T04:58:19.410Z,1.30
2019-01-31T05:03:21.021Z,1.63
2019-01-31T05:08:22.312Z,1.23
2019-01-31T05:13:23.622Z,1.30
2019-01-31T05:18:25.049Z,1.30
2019-01-31T05:23:26.443Z,2.83
2019-01-31T05:28:27.713Z,1.60
2019-01-31T05:33:29.279Z,3.53
2019-01-31T05:38:30.979Z,1.60
2019-01-31T05:43:32.415Z,1.90
2019-01-31T05:48:33.685Z,1.97
2019-01-31T05:53:34.978Z,1.77
2019-01-31T05:58:36.648Z,1.50
2019-01-31T06:03:38.346Z,1.97
2019-01-31T06:08:40.251Z,1.40
2019-01-31T06:13:41.554Z,1.60
2019-01-31T06:18:42.903Z,1.60
2019-01-31T06:23:44.113Z,2.37
2019-01-31T06:28:45.396Z,2.83
2019-01-31T06:33:46.706Z,2.97
2019-01-31T06:38:48.095Z,3.50
2019-01-31T06:43:49.384Z,3.47
2019-01-31T06:48:51.094Z,3.07
2019-01-31T06:53:52.491Z,3.25
2019-01-31T06:58:53.786Z,2.60
2019-01-31T07:03:55.055Z,7.10
2019-01-31T07:08:56.406Z,1.70
2019-01-31T07:13:57.674Z,1.87
2019-01-31T07:18:59.167Z,2.17
2019-01-31T07:24:00.426Z,2.50
2019-01-31T07:29:01.808Z,3.07
2019-01-31T07:34:03.472Z,3.10
2019-01-31T07:39:08.281Z,5.07
2019-01-31T07:44:09.497Z,3.57
2019-01-31T07:49:10.897Z,3.27
2019-01-31T07:54:12.254Z,3.50
2019-01-31T07:59:13.532Z,2.93
2019-01-31T08:04:14.812Z,3.70
2019-01-31T08:09:16.241Z,3.17
2019-01-31T08:14:17.517Z,3.83
2019-01-31T08:19:18.794Z,3.90
2019-01-31T08:24:21.036Z,5.23
2019-01-31T08:29:22.253Z,3.43
2019-01-31T08:34:25.486Z,2.80
2019-01-31T08:39:26.981Z,3.13
2019-01-31T08:44:28.269Z,3.40
2019-01-31T08:49:29.917Z,4.67
2019-01-31T08:54:32.937Z,4.97
2019-01-31T08:59:34.538Z,8.43
2019-01-31T09:04:35.822Z,3.83
2019-01-31T09:09:37.137Z,6.23
2019-01-31T09:14:38.430Z,4.93
2019-01-31T09:19:39.708Z,5.00
2019-01-31T09:24:57.162Z,4.33
2019-01-31T09:30:04.967Z,2.80
2019-01-31T09:35:19.292Z,3.10
2019-01-31T09:40:45.303Z,2.87
2019-01-31T09:46:16.417Z,1.73
2019-01-31T09:51:38.542Z,3.20
2019-01-31T09:57:02.033Z,3.40
2019-01-31T10:02:29.769Z,4.17
2019-01-31T10:07:37.617Z,5.13
2019-01-31T10:12:57.946Z,5.60
2019-01-31T10:18:36.520Z,2.80
2019-01-31T10:23:51.112Z,1.80
2019-01-31T10:29:13.217Z,2.70
2019-01-31T10:34:38.227Z,2.53
2019-01-31T10:39:51.902Z,2.93
2019-01-31T10:45:18.362Z,3.13
2019-01-31T10:50:40.253Z,2.07
2019-01-31T10:56:14.531Z,2.13
2019-01-31T11:01:28.953Z,2.00
2019-01-31T11:06:49.564Z,1.90
2019-01-31T11:12:21.321Z,2.07
2019-01-31T11:17:29.554Z,1.63
2019-01-31T11:22:40.433Z,2.47
2019-01-31T11:28:00.158Z,2.37
2019-01-31T11:33:19.905Z,1.50
2019-01-31T11:38:28.074Z,2.10
2019-01-31T11:43:51.554Z,1.73
2019-01-31T11:48:59.630Z,2.40
2019-01-31T11:54:07.452Z,2.00
2019-01-31T11:59:08.742Z,2.87
2019-01-31T12:04:10.117Z,1.90
2019-01-31T12:09:11.521Z,2.00
2019-01-31T12:14:12.801Z,1.70
2019-01-31T12:19:14.081Z,2.47
2019-01-31T12:24:16.472Z,2.60
2019-01-31T12:29:18.050Z,4.10
2019-01-31T12:34:19.334Z,3.60
2019-01-31T12:39:20.614Z,2.20
2019-01-31T12:44:21.895Z,4.47
2019-01-31T12:49:23.468Z,8.47
2019-01-31T12:54:24.754Z,6.13
2019-01-31T12:59:26.043Z,3.33
2019-01-31T13:04:27.318Z,2.40
2019-01-31T13:09:28.641Z,1.83
2019-01-31T13:14:29.907Z,1.57
2019-01-31T13:19:31.187Z,2.47
2019-01-31T13:24:32.749Z,2.23
2019-01-31T13:29:34.139Z,2.50
2019-01-31T13:34:35.420Z,1.27
2019-01-31T13:39:36.693Z,1.30
2019-01-31T13:44:37.965Z,1.20
2019-01-31T13:49:39.241Z,1.50
2019-01-31T13:54:40.518Z,1.20
2019-01-31T13:59:41.793Z,1.50
2019-01-31T14:04:43.086Z,1.40
2019-01-31T14:09:44.406Z,1.10
2019-01-31T14:14:45.681Z,1.60
2019-01-31T14:19:47.356Z,1.43
2019-01-31T14:24:48.754Z,2.50
2019-01-31T14:29:50.409Z,1.50
2019-01-31T14:34:51.720Z,1.50
2019-01-31T14:39:53.005Z,1.30
2019-01-31T14:44:54.614Z,1.27
2019-01-31T14:49:55.895Z,1.40
2019-01-31T14:54:57.174Z,1.17
2019-01-31T14:59:58.455Z,1.40
2019-01-31T15:04:59.736Z,1.50
2019-01-31T15:10:01.085Z,1.73
2019-01-31T15:15:04.970Z,1.47
2019-01-31T15:20:18.843Z,1.83
2019-01-31T15:25:20.522Z,1.80
2019-01-31T15:30:25.182Z,1.70
2019-01-31T15:35:26.463Z,2.80
2019-01-31T15:40:39.871Z,3.20
2019-01-31T15:45:41.563Z,1.70
2019-01-31T15:50:42.846Z,1.43
2019-01-31T15:55:44.122Z,1.60
2019-01-31T16:00:47.811Z,1.30
2019-01-31T16:05:49.095Z,5.20
2019-01-31T16:10:50.496Z,15.63
2019-01-31T16:15:51.867Z,11.37
2019-01-31T16:20:53.284Z,10.80
2019-01-31T16:25:54.578Z,11.20
2019-01-31T16:30:56.513Z,9.70
2019-01-31T16:35:57.805Z,8.17
2019-01-31T16:40:59.086Z,9.27
2019-01-31T16:46:00.372Z,31.73
2019-01-31T16:51:01.645Z,17.20
2019-01-31T16:56:02.936Z,18.63
2019-01-31T17:01:04.561Z,11.67
2019-01-31T17:06:05.989Z,6.70
2019-01-31T17:11:07.299Z,23.77
2019-01-31T17:16:08.570Z,20.50
2019-01-31T17:21:09.854Z,15.27
2019-01-31T17:26:11.142Z,11.00
2019-01-31T17:31:12.434Z,14.30
2019-01-31T17:36:13.726Z,12.43
2019-01-31T17:41:15.009Z,15.90
2019-01-31T17:46:16.298Z,10.30
2019-01-31T17:51:18.084Z,8.03
2019-01-31T17:56:19.697Z,6.03
2019-01-31T18:01:20.973Z,14.30
2019-01-31T18:06:22.526Z,7.97
2019-01-31T18:11:23.828Z,7.60
2019-01-31T18:16:25.134Z,19.17
2019-01-31T18:21:26.418Z,10.23
2019-01-31T18:26:27.999Z,31.47
2019-01-31T18:31:29.298Z,26.07
2019-01-31T18:36:30.587Z,24.27
2019-01-31T18:41:31.906Z,12.97
2019-01-31T18:46:33.175Z,29.17
2019-01-31T18:51:34.452Z,7.67
2019-01-31T18:56:35.741Z,5.33
2019-01-31T19:01:37.423Z,4.90
2019-01-31T19:06:38.893Z,9.17
2019-01-31T19:11:40.192Z,9.27
2019-01-31T19:16:41.469Z,7.43
2019-01-31T19:21:42.741Z,6.70
2019-01-31T19:26:44.055Z,7.27
2019-01-31T19:31:45.615Z,7.53
2019-01-31T19:36:46.898Z,7.00
2019-01-31T19:41:48.173Z,7.33
2019-01-31T19:46:49.458Z,8.20
2019-01-31T19:51:51.046Z,9.10
2019-01-31T19:56:52.334Z,9.77
2019-01-31T20:01:54.340Z,9.73
2019-01-31T20:06:55.653Z,12.03
2019-01-31T20:11:56.958Z,12.47
2019-01-31T20:16:58.645Z,13.87
2019-01-31T20:21:59.916Z,10.27
2019-01-31T20:27:01.515Z,11.20
2019-01-31T20:32:03.597Z,9.93
2019-01-31T20:37:04.878Z,9.47
2019-01-31T20:42:06.170Z,10.40
2019-01-31T20:47:08.397Z,10.80
2019-01-31T20:52:09.682Z,11.47
2019-01-31T20:57:11.366Z,10.47
2019-01-31T21:02:12.682Z,11.80
2019-01-31T21:07:13.938Z,11.77
2019-01-31T21:12:15.237Z,11.80
2019-01-31T21:17:16.635Z,12.37
2019-01-31T21:22:17.910Z,12.90
2019-01-31T21:27:19.525Z,12.23
2019-01-31T21:32:20.813Z,12.63
2019-01-31T21:37:22.100Z,11.53
2019-01-31T21:42:23.365Z,12.53
2019-01-31T21:47:24.650Z,12.83
2019-01-31T21:52:25.933Z,11.93
2019-01-31T21:57:27.224Z,11.47
2019-01-31T22:02:28.818Z,11.80
2019-01-31T22:07:30.100Z,12.13
2019-01-31T22:12:31.402Z,14.93
2019-01-31T22:17:33.008Z,16.90
2019-01-31T22:22:34.291Z,23.13
2019-01-31T22:27:35.577Z,18.47
2019-01-31T22:32:36.870Z,15.87
2019-01-31T22:37:38.507Z,14.00
2019-01-31T22:42:39.790Z,13.83
2019-01-31T22:47:41.270Z,14.10
2019-01-31T22:52:42.546Z,41.67
2019-01-31T22:57:43.823Z,19.87
2019-01-31T23:02:45.214Z,20.70
2019-01-31T23:07:46.510Z,24.07
2019-01-31T23:12:47.818Z,21.87
2019-01-31T23:17:49.115Z,24.20
2019-01-31T23:22:50.405Z,22.20
2019-01-31T23:27:51.691Z,23.10
2019-01-31T23:32:52.965Z,25.03
2019-01-31T23:37:54.651Z,22.90
2019-01-31T23:42:56.233Z,32.75
2019-01-31T23:47:57.532Z,24.70
2019-01-31T23:52:58.816Z,23.23
2019-01-31T23:58:00.096Z,23.37
